createdAt,value
2019-02-24T00:00:00.570Z,0.99
2019-02-24T00:02:32.593Z,1.11
2019-02-24T00:05:04.642Z,1.18
2019-02-24T00:07:36.757Z,1.34
2019-02-24T00:10:08.774Z,1.30
2019-02-24T00:12:40.778Z,1.29
2019-02-24T00:15:12.743Z,1.30
2019-02-24T00:17:44.790Z,1.27
2019-02-24T00:20:16.864Z,1.27
2019-02-24T00:22:49.992Z,1.16
2019-02-24T00:25:23.242Z,1.13
2019-02-24T00:27:55.241Z,1.15
2019-02-24T00:30:27.235Z,1.10
2019-02-24T00:33:00.674Z,1.10
2019-02-24T00:35:32.667Z,1.11
2019-02-24T00:38:04.689Z,1.08
2019-02-24T00:40:36.661Z,1.05
2019-02-24T00:43:09.025Z,1.04
2019-02-24T00:45:41.042Z,0.84
2019-02-24T00:48:13.079Z,0.84
2019-02-24T00:50:46.849Z,0.88
2019-02-24T00:53:18.957Z,0.86
2019-02-24T00:55:50.928Z,0.96
2019-02-24T00:58:23.015Z,1.02
2019-02-24T01:00:55.032Z,1.07
2019-02-24T01:03:27.041Z,1.09
2019-02-24T01:05:59.001Z,1.04
2019-02-24T01:08:31.003Z,0.96
2019-02-24T01:11:02.976Z,0.96
2019-02-24T01:13:34.992Z,0.96
2019-02-24T01:16:06.958Z,0.87
2019-02-24T01:18:40.554Z,0.89
2019-02-24T01:21:12.537Z,0.97
2019-02-24T01:23:44.693Z,0.92
2019-02-24T01:26:16.716Z,0.89
2019-02-24T01:28:48.701Z,0.90
2019-02-24T01:31:20.718Z,0.78
2019-02-24T01:33:52.712Z,0.63
2019-02-24T01:36:24.685Z,0.66
2019-02-24T01:38:56.775Z,0.63
2019-02-24T01:41:29.924Z,0.52
2019-02-24T01:44:01.911Z,0.48
2019-02-24T01:46:34.091Z,0.54
2019-02-24T01:49:06.096Z,0.43
2019-02-24T01:51:38.076Z,0.45
2019-02-24T01:54:10.076Z,0.43
2019-02-24T01:56:42.043Z,0.45
2019-02-24T01:59:14.044Z,0.46
2019-02-24T02:01:46.862Z,0.43
2019-02-24T02:04:18.864Z,0.44
2019-02-24T02:06:50.897Z,0.38
2019-02-24T02:09:22.902Z,0.41
2019-02-24T02:11:54.881Z,0.40
2019-02-24T02:14:26.884Z,0.37
2019-02-24T02:16:58.891Z,0.34
2019-02-24T02:19:30.880Z,0.36
2019-02-24T02:22:02.908Z,0.38
2019-02-24T02:24:34.929Z,0.44
2019-02-24T02:27:06.927Z,0.35
2019-02-24T02:29:38.895Z,0.29
2019-02-24T02:32:10.893Z,0.29
2019-02-24T02:34:42.872Z,0.26
2019-02-24T02:37:16.661Z,0.21
2019-02-24T02:39:48.638Z,0.24
2019-02-24T02:42:20.633Z,0.20
2019-02-24T02:44:52.601Z,0.22
2019-02-24T02:47:24.579Z,0.14
2019-02-24T02:49:56.568Z,0.18
2019-02-24T02:52:28.840Z,0.18
2019-02-24T02:55:00.790Z,0.20
2019-02-24T02:57:32.798Z,0.14
2019-02-24T03:00:12.524Z,0.09
2019-02-24T03:02:44.516Z,0.09
2019-02-24T03:05:16.487Z,0.09
2019-02-24T03:07:54.689Z,0.09
2019-02-24T03:10:26.645Z,0.00
2019-02-24T03:12:58.639Z,-0.09
2019-02-24T03:15:30.599Z,-0.13
2019-02-24T03:18:02.594Z,-0.12
2019-02-24T03:20:34.562Z,-0.12
2019-02-24T03:23:06.551Z,-0.12
2019-02-24T03:25:38.553Z,-0.12
2019-02-24T03:28:10.546Z,-0.28
2019-02-24T03:30:42.548Z,-0.29
2019-02-24T03:33:14.533Z,-0.28
2019-02-24T03:35:46.510Z,-0.28
2019-02-24T03:38:18.535Z,-0.17
2019-02-24T03:40:50.577Z,-0.11
2019-02-24T03:43:22.575Z,-0.02
2019-02-24T03:45:54.550Z,0.04
2019-02-24T03:48:26.576Z,-0.04
2019-02-24T03:50:58.540Z,-0.07
2019-02-24T03:53:30.620Z,-0.10
2019-02-24T03:56:02.605Z,-0.09
2019-02-24T03:58:34.594Z,-0.13
2019-02-24T04:01:06.565Z,-0.19
2019-02-24T04:03:38.543Z,-0.28
2019-02-24T04:06:10.508Z,-0.30
2019-02-24T04:08:42.501Z,-0.24
2019-02-24T04:11:14.491Z,-0.26
2019-02-24T04:13:46.503Z,-0.25
2019-02-24T04:16:18.473Z,-0.25
2019-02-24T04:18:50.484Z,-0.22
2019-02-24T04:21:22.454Z,-0.36
2019-02-24T04:23:54.450Z,-0.32
2019-02-24T04:26:26.428Z,-0.36
2019-02-24T04:28:58.427Z,-0.30
2019-02-24T04:31:30.397Z,-0.32
2019-02-24T04:34:02.400Z,-0.34
2019-02-24T04:36:34.376Z,-0.39
2019-02-24T04:39:06.358Z,-0.41
2019-02-24T04:41:38.323Z,-0.39
2019-02-24T04:44:10.331Z,-0.48
2019-02-24T04:46:42.302Z,-0.49
2019-02-24T04:49:14.287Z,-0.50
2019-02-24T04:51:46.275Z,-0.47
2019-02-24T04:54:18.258Z,-0.45
2019-02-24T04:56:50.260Z,-0.53
2019-02-24T04:59:22.219Z,-0.52
2019-02-24T05:01:54.222Z,-0.52
2019-02-24T05:04:26.198Z,-0.51
2019-02-24T05:06:58.333Z,-0.43
2019-02-24T05:09:30.286Z,-0.47
2019-02-24T05:12:02.279Z,-0.55
2019-02-24T05:14:34.241Z,-0.47
2019-02-24T05:17:06.257Z,-0.56
2019-02-24T05:19:38.213Z,-0.59
2019-02-24T05:22:10.203Z,-0.61
2019-02-24T05:24:42.194Z,-0.64
2019-02-24T05:27:14.188Z,-0.75
2019-02-24T05:29:46.501Z,-0.75
2019-02-24T05:32:18.538Z,-0.69
2019-02-24T05:34:50.506Z,-0.61
2019-02-24T05:37:22.489Z,-0.59
2019-02-24T05:39:54.469Z,-0.59
2019-02-24T05:42:26.492Z,-0.66
2019-02-24T05:44:58.456Z,-0.61
2019-02-24T05:47:30.456Z,-0.57
2019-02-24T05:50:02.440Z,-0.56
2019-02-24T05:52:34.445Z,-0.60
2019-02-24T05:55:06.398Z,-0.70
2019-02-24T05:57:38.385Z,-0.70
2019-02-24T06:00:10.352Z,-0.64
2019-02-24T06:02:42.383Z,-0.69
2019-02-24T06:05:14.342Z,-0.61
2019-02-24T06:07:46.364Z,-0.68
2019-02-24T06:10:18.403Z,-0.62
2019-02-24T06:12:50.354Z,-0.43
2019-02-24T06:15:22.350Z,-0.39
2019-02-24T06:17:54.348Z,-0.33
2019-02-24T06:20:26.346Z,-0.35
2019-02-24T06:22:58.311Z,-0.32
2019-02-24T06:25:30.438Z,-0.35
2019-02-24T06:28:02.427Z,-0.39
2019-02-24T06:30:34.419Z,-0.40
2019-02-24T06:33:06.398Z,-0.44
2019-02-24T06:35:38.425Z,-0.38
2019-02-24T06:38:10.402Z,-0.40
2019-02-24T06:40:42.384Z,-0.34
2019-02-24T06:43:14.336Z,-0.21
2019-02-24T06:45:46.362Z,0.05
2019-02-24T06:48:18.351Z,0.28
2019-02-24T06:50:59.630Z,0.51
2019-02-24T06:53:31.616Z,0.67
2019-02-24T06:56:03.618Z,0.96
2019-02-24T06:58:35.605Z,1.27
2019-02-24T07:01:07.601Z,1.46
2019-02-24T07:03:39.734Z,1.79
2019-02-24T07:06:11.729Z,2.10
2019-02-24T07:08:43.711Z,2.44
2019-02-24T07:11:15.719Z,2.61
2019-02-24T07:13:47.707Z,2.71
2019-02-24T07:16:19.699Z,2.80
2019-02-24T07:18:51.672Z,2.76
2019-02-24T07:21:23.673Z,2.83
2019-02-24T07:23:55.664Z,2.88
2019-02-24T07:26:27.662Z,3.14
2019-02-24T07:28:59.658Z,3.29
2019-02-24T07:31:31.671Z,3.50
2019-02-24T07:34:03.683Z,3.63
2019-02-24T07:36:35.692Z,3.80
2019-02-24T07:39:07.652Z,3.91
2019-02-24T07:41:39.671Z,4.21
2019-02-24T07:44:11.667Z,4.35
2019-02-24T07:46:43.648Z,4.59
2019-02-24T07:49:15.637Z,4.76
2019-02-24T07:51:47.674Z,4.80
2019-02-24T07:54:19.681Z,4.96
2019-02-24T07:56:51.731Z,5.14
2019-02-24T07:59:23.769Z,5.20
2019-02-24T08:01:55.826Z,5.46
2019-02-24T08:04:27.845Z,5.44
2019-02-24T08:07:00.587Z,5.39
2019-02-24T08:09:32.630Z,5.47
2019-02-24T08:12:04.639Z,5.40
2019-02-24T08:14:36.643Z,5.46
2019-02-24T08:17:08.652Z,5.88
2019-02-24T08:19:40.676Z,6.09
2019-02-24T08:22:12.688Z,6.39
2019-02-24T08:24:44.756Z,6.66
2019-02-24T08:27:16.804Z,6.92
2019-02-24T08:29:48.884Z,7.10
2019-02-24T08:32:20.859Z,7.01
2019-02-24T08:34:53.156Z,7.22
2019-02-24T08:37:25.186Z,7.27
2019-02-24T08:39:57.201Z,7.43
2019-02-24T08:42:29.162Z,7.58
2019-02-24T08:45:01.224Z,7.63
2019-02-24T08:47:33.197Z,7.65
2019-02-24T08:50:06.399Z,7.57
2019-02-24T08:52:38.416Z,7.77
2019-02-24T08:55:10.438Z,7.85
2019-02-24T08:57:42.440Z,8.30
2019-02-24T09:00:14.625Z,8.37
2019-02-24T09:02:46.614Z,8.65
2019-02-24T09:05:18.654Z,8.29
2019-02-24T09:07:50.668Z,8.51
2019-02-24T09:10:22.701Z,8.58
2019-02-24T09:12:54.717Z,8.84
2019-02-24T09:15:26.836Z,8.96
2019-02-24T09:17:58.858Z,9.16
2019-02-24T09:20:31.009Z,9.07
2019-02-24T09:23:03.015Z,9.07
2019-02-24T09:25:45.124Z,9.32
2019-02-24T09:28:17.100Z,9.46
2019-02-24T09:30:49.139Z,9.67
2019-02-24T09:33:21.182Z,9.66
2019-02-24T09:35:53.262Z,9.73
2019-02-24T09:38:25.245Z,9.65
2019-02-24T09:40:57.415Z,9.82
2019-02-24T09:43:29.446Z,9.85
2019-02-24T09:46:01.508Z,10.02
2019-02-24T09:48:33.544Z,10.14
2019-02-24T09:51:05.654Z,10.27
2019-02-24T09:53:37.693Z,10.16
2019-02-24T09:56:09.759Z,10.27
2019-02-24T09:58:41.779Z,10.40
2019-02-24T10:01:13.822Z,10.33
2019-02-24T10:03:45.841Z,10.22
2019-02-24T10:06:17.944Z,10.37
2019-02-24T10:08:50.036Z,10.45
2019-02-24T10:11:22.060Z,10.49
2019-02-24T10:13:54.129Z,10.49
2019-02-24T10:16:26.129Z,10.60
2019-02-24T10:18:58.152Z,10.80
2019-02-24T10:21:30.154Z,10.80
2019-02-24T10:24:02.210Z,10.73
2019-02-24T10:26:34.278Z,10.85
2019-02-24T10:29:06.413Z,11.03
2019-02-24T10:31:38.432Z,11.11
2019-02-24T10:34:10.555Z,11.21
2019-02-24T10:37:02.069Z,11.30
2019-02-24T10:39:34.172Z,11.30
2019-02-24T10:42:25.663Z,11.47
2019-02-24T10:44:57.727Z,11.47
2019-02-24T10:47:29.752Z,11.43
2019-02-24T10:50:02.270Z,11.61
2019-02-24T10:52:34.261Z,11.71
2019-02-24T10:55:06.341Z,12.02
2019-02-24T10:57:38.371Z,12.07
2019-02-24T11:00:11.886Z,12.10
2019-02-24T11:02:43.904Z,12.12
2019-02-24T11:05:16.099Z,12.11
2019-02-24T11:07:48.101Z,12.23
2019-02-24T11:10:20.194Z,12.46
2019-02-24T11:12:52.202Z,12.45
2019-02-24T11:15:24.250Z,12.37
2019-02-24T11:17:56.244Z,12.31
2019-02-24T11:20:28.308Z,12.37
2019-02-24T11:23:00.319Z,12.49
2019-02-24T11:25:32.395Z,12.60
2019-02-24T11:28:04.404Z,12.65
2019-02-24T11:30:36.550Z,12.61
2019-02-24T11:33:08.590Z,12.58
2019-02-24T11:35:40.645Z,12.62
2019-02-24T11:38:53.442Z,12.75
2019-02-24T11:41:25.460Z,12.71
2019-02-24T11:43:57.478Z,12.70
2019-02-24T11:46:29.527Z,12.67
2019-02-24T11:49:01.558Z,12.89
2019-02-24T11:51:33.615Z,12.87
2019-02-24T11:54:05.667Z,12.79
2019-02-24T11:56:37.729Z,12.91
2019-02-24T11:59:09.805Z,13.03
2019-02-24T12:01:47.614Z,13.11
2019-02-24T12:04:15.731Z,13.16
2019-02-24T12:06:47.752Z,13.06
2019-02-24T12:09:19.767Z,13.14
2019-02-24T12:11:51.871Z,13.17
2019-02-24T12:14:23.871Z,13.12
2019-02-24T12:16:55.933Z,13.15
2019-02-24T12:19:27.987Z,13.20
2019-02-24T12:22:00.037Z,13.22
2019-02-24T12:24:32.115Z,13.22
2019-02-24T12:27:04.126Z,13.31
2019-02-24T12:29:36.456Z,13.41
2019-02-24T12:32:08.507Z,13.29
2019-02-24T12:34:40.635Z,13.37
2019-02-24T12:37:12.652Z,13.49
2019-02-24T12:39:44.764Z,13.49
2019-02-24T12:42:19.712Z,13.66
2019-02-24T12:44:52.030Z,13.60
2019-02-24T12:47:24.215Z,13.68
2019-02-24T12:50:02.973Z,13.60
2019-02-24T12:52:30.263Z,13.68
2019-02-24T12:55:02.437Z,13.78
2019-02-24T12:57:34.522Z,13.68
2019-02-24T13:00:10.550Z,13.44
2019-02-24T13:02:44.375Z,13.60
2019-02-24T13:05:16.429Z,13.72
2019-02-24T13:07:48.431Z,13.70
2019-02-24T13:10:20.682Z,13.65
2019-02-24T13:12:52.737Z,13.75
2019-02-24T13:15:24.754Z,13.65
2019-02-24T13:17:56.770Z,13.75
2019-02-24T13:20:28.886Z,13.64
2019-02-24T13:23:01.094Z,13.65
2019-02-24T13:25:35.034Z,13.59
2019-02-24T13:28:07.361Z,13.61
2019-02-24T13:30:39.366Z,13.75
2019-02-24T13:33:11.515Z,13.79
2019-02-24T13:35:43.648Z,13.90
2019-02-24T13:38:15.742Z,13.97
2019-02-24T13:40:47.887Z,14.07
2019-02-24T13:43:19.959Z,13.92
2019-02-24T13:45:52.008Z,13.93
2019-02-24T13:48:24.135Z,14.07
2019-02-24T13:50:56.294Z,13.86
2019-02-24T13:53:28.326Z,13.90
2019-02-24T13:56:00.415Z,13.99
2019-02-24T13:58:34.266Z,14.07
2019-02-24T14:01:06.273Z,14.17
2019-02-24T14:03:38.398Z,14.16
2019-02-24T14:06:10.409Z,14.08
2019-02-24T14:08:42.395Z,14.09
2019-02-24T14:11:14.481Z,14.03
2019-02-24T14:13:48.629Z,14.06
2019-02-24T14:16:22.124Z,14.03
2019-02-24T14:18:54.331Z,13.85
2019-02-24T14:21:26.407Z,13.88
2019-02-24T14:23:58.621Z,14.16
2019-02-24T14:26:30.727Z,14.13
2019-02-24T14:29:02.755Z,14.27
2019-02-24T14:31:34.793Z,14.17
2019-02-24T14:34:06.790Z,14.29
2019-02-24T14:36:38.856Z,14.12
2019-02-24T14:39:10.886Z,14.13
2019-02-24T14:41:43.022Z,14.19
2019-02-24T14:44:16.857Z,14.15
2019-02-24T14:46:48.930Z,13.96
2019-02-24T14:49:20.982Z,14.02
2019-02-24T14:51:52.973Z,14.11
2019-02-24T14:54:25.730Z,14.20
2019-02-24T14:56:57.815Z,14.15
2019-02-24T14:59:29.884Z,14.20
2019-02-24T15:02:01.987Z,14.27
2019-02-24T15:04:34.045Z,14.04
2019-02-24T15:07:07.932Z,14.00
2019-02-24T15:09:40.014Z,13.88
2019-02-24T15:12:12.611Z,13.99
2019-02-24T15:14:44.742Z,13.97
2019-02-24T15:17:16.735Z,13.94
2019-02-24T15:19:48.883Z,13.91
2019-02-24T15:22:20.892Z,13.88
2019-02-24T15:24:52.934Z,13.82
2019-02-24T15:27:24.963Z,13.92
2019-02-24T15:29:57.000Z,13.93
2019-02-24T15:32:29.023Z,13.90
2019-02-24T15:35:01.044Z,13.82
2019-02-24T15:37:33.086Z,13.87
2019-02-24T15:40:06.166Z,13.82
2019-02-24T15:42:38.137Z,13.71
2019-02-24T15:45:10.486Z,13.68
2019-02-24T15:47:42.606Z,13.70
2019-02-24T15:50:14.666Z,13.69
2019-02-24T15:52:46.786Z,13.68
2019-02-24T15:55:18.871Z,13.59
2019-02-24T15:57:52.839Z,13.46
2019-02-24T16:00:24.951Z,13.31
2019-02-24T16:03:01.509Z,13.37
2019-02-24T16:05:31.981Z,13.33
2019-02-24T16:08:04.035Z,13.24
2019-02-24T16:10:38.113Z,13.14
2019-02-24T16:13:16.735Z,13.00
2019-02-24T16:15:44.095Z,12.90
2019-02-24T16:18:16.145Z,12.88
2019-02-24T16:20:48.221Z,12.71
2019-02-24T16:23:22.158Z,12.65
2019-02-24T16:25:54.226Z,12.63
2019-02-24T16:28:26.296Z,12.63
2019-02-24T16:30:58.642Z,12.55
2019-02-24T16:33:30.790Z,12.40
2019-02-24T16:36:02.858Z,12.33
2019-02-24T16:38:34.962Z,12.09
2019-02-24T16:41:08.433Z,12.13
2019-02-24T16:43:40.692Z,12.08
2019-02-24T16:46:12.746Z,11.93
2019-02-24T16:48:44.775Z,11.98
2019-02-24T16:51:16.944Z,11.85
2019-02-24T16:53:49.048Z,11.72
2019-02-24T16:56:21.374Z,11.57
2019-02-24T16:58:53.701Z,11.60
2019-02-24T17:01:25.769Z,11.50
2019-02-24T17:03:57.854Z,11.41
2019-02-24T17:06:29.884Z,11.34
2019-02-24T17:09:03.308Z,11.17
2019-02-24T17:11:35.578Z,11.17
2019-02-24T17:14:07.840Z,11.06
2019-02-24T17:16:39.882Z,11.04
2019-02-24T17:19:11.962Z,10.89
2019-02-24T17:21:43.977Z,10.76
2019-02-24T17:24:16.042Z,10.63
2019-02-24T17:26:48.147Z,10.54
2019-02-24T17:29:20.213Z,10.51
2019-02-24T17:31:52.263Z,10.41
2019-02-24T17:34:24.358Z,10.26
2019-02-24T17:36:56.436Z,10.10
2019-02-24T17:39:28.475Z,9.99
2019-02-24T17:42:00.579Z,9.86
2019-02-24T17:44:32.606Z,9.72
2019-02-24T17:47:04.638Z,9.54
2019-02-24T17:49:36.802Z,9.41
2019-02-24T17:52:08.913Z,9.38
2019-02-24T17:54:41.060Z,9.24
2019-02-24T17:57:13.187Z,9.15
2019-02-24T17:59:46.493Z,9.03
2019-02-24T18:02:19.663Z,8.88
2019-02-24T18:04:51.769Z,8.76
2019-02-24T18:07:23.851Z,8.63
2019-02-24T18:09:57.946Z,8.48
2019-02-24T18:12:31.506Z,8.33
2019-02-24T18:15:03.998Z,8.21
2019-02-24T18:17:36.065Z,8.08
2019-02-24T18:20:09.085Z,8.02
2019-02-24T18:22:41.184Z,7.94
2019-02-24T18:25:13.300Z,7.86
2019-02-24T18:27:45.393Z,7.85
2019-02-24T18:30:19.662Z,7.77
2019-02-24T18:32:51.960Z,7.71
2019-02-24T18:35:24.159Z,7.61
2019-02-24T18:37:56.227Z,7.62
2019-02-24T18:40:28.343Z,7.51
2019-02-24T18:43:00.907Z,7.49
2019-02-24T18:45:33.147Z,7.32
2019-02-24T18:48:05.371Z,7.26
2019-02-24T18:50:37.485Z,7.18
2019-02-24T18:53:09.647Z,7.09
2019-02-24T18:55:41.819Z,7.04
2019-02-24T18:58:14.148Z,6.96
2019-02-24T19:00:46.270Z,6.89
2019-02-24T19:03:18.451Z,6.82
2019-02-24T19:05:50.510Z,6.70
2019-02-24T19:08:22.661Z,6.54
2019-02-24T19:10:54.793Z,6.52
2019-02-24T19:13:27.043Z,6.44
2019-02-24T19:15:59.204Z,6.42
2019-02-24T19:18:31.329Z,6.34
2019-02-24T19:21:03.473Z,6.33
2019-02-24T19:23:35.827Z,6.25
2019-02-24T19:26:09.261Z,6.23
2019-02-24T19:28:41.533Z,6.15
2019-02-24T19:31:13.653Z,6.04
2019-02-24T19:33:45.797Z,6.08
2019-02-24T19:36:17.894Z,6.00
2019-02-24T19:38:50.014Z,5.98
2019-02-24T19:41:22.447Z,5.94
2019-02-24T19:43:54.578Z,5.97
2019-02-24T19:46:26.644Z,5.90
2019-02-24T19:48:58.960Z,5.84
2019-02-24T19:51:31.125Z,5.79
2019-02-24T19:54:03.843Z,5.73
2019-02-24T19:56:36.261Z,5.71
2019-02-24T19:59:08.483Z,5.64
2019-02-24T20:01:40.776Z,5.60
2019-02-24T20:04:16.278Z,5.57
2019-02-24T20:06:48.603Z,5.55
2019-02-24T20:09:22.199Z,5.45
2019-02-24T20:11:54.527Z,5.33
2019-02-24T20:14:26.971Z,5.27
2019-02-24T20:16:59.295Z,5.29
2019-02-24T20:19:33.270Z,5.30
2019-02-24T20:22:05.518Z,5.27
2019-02-24T20:24:37.708Z,5.17
2019-02-24T20:27:10.001Z,5.10
2019-02-24T20:29:42.278Z,5.00
2019-02-24T20:32:14.545Z,4.96
2019-02-24T20:34:47.701Z,4.88
2019-02-24T20:37:20.171Z,4.82
2019-02-24T20:39:52.426Z,4.79
2019-02-24T20:42:25.615Z,4.78
2019-02-24T20:44:57.825Z,4.72
2019-02-24T20:47:29.944Z,4.58
2019-02-24T20:50:02.213Z,4.48
2019-02-24T20:52:36.053Z,4.41
2019-02-24T20:55:10.444Z,4.34
2019-02-24T20:57:42.549Z,4.22
2019-02-24T21:00:26.567Z,4.16
2019-02-24T21:02:58.812Z,4.07
2019-02-24T21:05:31.097Z,4.04
2019-02-24T21:08:03.191Z,4.10
2019-02-24T21:10:35.437Z,4.04
2019-02-24T21:13:07.474Z,4.00
2019-02-24T21:15:39.475Z,3.97
2019-02-24T21:18:11.617Z,3.94
2019-02-24T21:20:43.687Z,3.96
2019-02-24T21:23:15.900Z,4.01
2019-02-24T21:25:47.957Z,4.01
2019-02-24T21:28:20.229Z,3.92
2019-02-24T21:30:52.348Z,3.86
2019-02-24T21:33:24.453Z,3.73
2019-02-24T21:35:56.564Z,3.61
2019-02-24T21:38:28.644Z,3.59
2019-02-24T21:41:00.761Z,3.51
2019-02-24T21:43:32.895Z,3.43
2019-02-24T21:46:05.145Z,3.37
2019-02-24T21:48:37.765Z,3.31
2019-02-24T21:51:09.809Z,3.30
2019-02-24T21:53:41.845Z,3.27
2019-02-24T21:56:13.866Z,3.32
2019-02-24T21:58:46.029Z,3.23
2019-02-24T22:01:18.106Z,3.22
2019-02-24T22:03:50.534Z,3.15
2019-02-24T22:06:24.402Z,3.15
2019-02-24T22:08:56.445Z,3.20
2019-02-24T22:11:28.501Z,3.21
2019-02-24T22:14:00.559Z,3.20
2019-02-24T22:16:32.645Z,3.19
2019-02-24T22:19:06.457Z,3.16
2019-02-24T22:21:38.452Z,3.15
2019-02-24T22:24:10.508Z,3.10
2019-02-24T22:26:42.588Z,3.08
2019-02-24T22:29:14.783Z,3.05
2019-02-24T22:31:46.814Z,2.96
2019-02-24T22:34:18.962Z,2.91
2019-02-24T22:36:50.981Z,2.92
2019-02-24T22:39:23.483Z,2.90
2019-02-24T22:41:55.513Z,2.77
2019-02-24T22:44:27.519Z,2.58
2019-02-24T22:46:59.586Z,2.55
2019-02-24T22:49:31.591Z,2.55
2019-02-24T22:52:03.601Z,2.55
2019-02-24T22:54:35.600Z,2.53
2019-02-24T22:57:07.627Z,2.53
2019-02-24T22:59:39.581Z,2.58
2019-02-24T23:02:11.618Z,2.56
2019-02-24T23:04:43.698Z,2.54
2019-02-24T23:07:15.794Z,2.49
2019-02-24T23:09:47.798Z,2.41
2019-02-24T23:12:19.833Z,2.38
2019-02-24T23:14:51.796Z,2.34
2019-02-24T23:17:23.847Z,2.27
2019-02-24T23:19:56.000Z,2.19
2019-02-24T23:22:28.080Z,2.22
2019-02-24T23:25:00.054Z,2.14
2019-02-24T23:27:33.941Z,2.04
2019-02-24T23:30:06.033Z,1.97
2019-02-24T23:32:38.036Z,1.96
2019-02-24T23:35:10.043Z,1.97
2019-02-24T23:37:42.071Z,2.07
2019-02-24T23:40:14.181Z,2.00
2019-02-24T23:42:46.178Z,1.92
2019-02-24T23:45:18.154Z,1.82
2019-02-24T23:47:50.172Z,1.85
2019-02-24T23:50:22.254Z,1.92
2019-02-24T23:52:54.224Z,1.87
2019-02-24T23:55:26.242Z,1.84
2019-02-24T23:57:58.366Z,1.88
